EDFH/HHN METAR and TAF weather

Enter ICAO airport designator
Station Type Date Time Source
EDFH METAR 2019/10/18 06:50 UTC NOAA

EDFH 180650Z 20012KT 9999 FEW015 SCT025 12/11 Q1009


Station Type Date Time Source
EDFH Decoded METAR 2019/10/18 06:50 UTC NOAA

Hahn, Germany (EDFH) 49-57N 007-16E 498M
Oct 18, 2019 - 02:50 AM EDT / 2019.10.18 0650 UTC
Wind: from the SSW (200 degrees) at 14 MPH (12 KT):0
Visibility: greater than 7 mile(s):0
Sky conditions: partly cloudy
Temperature: 53 F (12 C)
Dew Point: 51 F (11 C)
Relative Humidity: 93%
Pressure (altimeter): 29.80 in. Hg (1009 hPa)
ob: EDFH 180650Z 20012KT 9999 FEW015 SCT025 12/11 Q1009
cycle: 7

Station Type Date Time Source
EDFH TAF 2019/10/18 06:30 UTC NOAA

TAF TAF EDFH 180500Z 1806/1906 19010KT 9999 SCT006 BKN015
TEMPO 1806/1809 3500 DZ BKN007
BECMG 1807/1810 22015G25KT
TEMPO 1809/1816 21020G35KT 3000 SHRA BKN005 BKN015CB
BECMG 1817/1819 18008KT
TEMPO 1903/1906 3000 RA BKN005 OVC010

Example: see airport list